createdAt,value
2023-05-22T00:00:46.087Z,953.0562
2023-05-22T00:08:00.567Z,953.0190
2023-05-22T00:11:05.458Z,952.9905
2023-05-22T00:12:08.201Z,952.9857
2023-05-22T00:13:11.427Z,952.9890
2023-05-22T00:15:11.824Z,952.9950
2023-05-22T00:16:14.520Z,952.9948
2023-05-22T00:17:17.392Z,953.0014
2023-05-22T00:18:20.072Z,953.0057
2023-05-22T00:19:23.707Z,953.0238
2023-05-22T00:20:24.448Z,953.0440
2023-05-22T00:21:27.170Z,953.0481
2023-05-22T00:28:39.804Z,953.0391
2023-05-22T00:29:40.826Z,953.0370
2023-05-22T00:30:41.802Z,953.0390
2023-05-22T00:32:43.498Z,953.0610
2023-05-22T00:33:46.206Z,953.0967
2023-05-22T00:34:53.742Z,953.0905
2023-05-22T00:42:04.786Z,953.0472
2023-05-22T00:43:05.200Z,953.0440
2023-05-22T00:45:07.709Z,953.0324
2023-05-22T00:46:11.206Z,953.0324
2023-05-22T00:48:11.149Z,953.0175
2023-05-22T00:49:13.892Z,953.0153
2023-05-22T00:50:16.640Z,953.0153
2023-05-22T00:51:20.491Z,953.0286
2023-05-22T00:52:20.623Z,953.0195
2023-05-22T00:53:22.758Z,953.0386
2023-05-22T00:54:25.516Z,953.0538
2023-05-22T00:55:28.930Z,953.0667
2023-05-22T00:56:36.175Z,953.0715
2023-05-22T00:57:30.108Z,953.0639
2023-05-22T00:58:39.684Z,953.0607
2023-05-22T01:04:03.495Z,953.0547
2023-05-22T01:04:48.272Z,953.0485
2023-05-22T01:08:53.457Z,953.0205
2023-05-22T01:09:53.281Z,953.0085
2023-05-22T01:10:57.082Z,953.0086
2023-05-22T01:11:59.856Z,953.0095
2023-05-22T01:13:02.799Z,953.0210
2023-05-22T01:15:05.287Z,953.0219
2023-05-22T01:16:08.113Z,953.0333
2023-05-22T01:18:14.408Z,953.0428
2023-05-22T01:30:39.492Z,953.0300
2023-05-22T01:31:41.329Z,953.0285
2023-05-22T01:32:41.596Z,953.0205
2023-05-22T01:47:11.972Z,953.1186
2023-05-22T01:48:15.620Z,953.1152
2023-05-22T01:55:28.451Z,953.0624
2023-05-22T01:56:29.033Z,953.0545
2023-05-22T01:57:29.046Z,953.0535
2023-05-22T01:58:31.870Z,953.0576
2023-05-22T01:59:31.901Z,953.0420
2023-05-22T02:00:34.673Z,953.0376
2023-05-22T02:01:37.515Z,953.0348
2023-05-22T02:02:37.653Z,953.0330
2023-05-22T02:03:38.507Z,953.0390
2023-05-22T02:06:44.389Z,953.0262
2023-05-22T02:07:44.838Z,953.0275
2023-05-22T02:08:45.123Z,953.0335
2023-05-22T02:10:50.632Z,953.0433
2023-05-22T02:11:50.681Z,953.0440
2023-05-22T02:12:51.267Z,953.0380
2023-05-22T02:14:54.047Z,953.0500
2023-05-22T02:15:54.737Z,953.0645
2023-05-22T02:16:55.477Z,953.0850
2023-05-22T02:18:58.081Z,953.0876
2023-05-22T02:20:00.933Z,953.0767
2023-05-22T02:21:03.708Z,953.0695
2023-05-22T02:22:07.888Z,953.0705
2023-05-22T02:29:18.585Z,953.0810
2023-05-22T02:30:19.107Z,953.0790
2023-05-22T02:31:20.468Z,953.0615
2023-05-22T02:32:21.251Z,953.0500
2023-05-22T02:33:21.843Z,953.0240
2023-05-22T02:36:24.839Z,952.9852
2023-05-22T02:37:25.633Z,952.9770
2023-05-22T02:38:28.588Z,952.9633
2023-05-22T02:39:32.081Z,952.9505
2023-05-22T02:40:32.121Z,952.9455
2023-05-22T02:47:42.958Z,952.9830
2023-05-22T02:48:43.945Z,952.9915
2023-05-22T02:50:47.307Z,953.0057
2023-05-22T02:51:47.382Z,953.0125
2023-05-22T02:52:48.078Z,953.0205
2023-05-22T02:53:48.973Z,953.0300
2023-05-22T02:54:49.085Z,953.0475
2023-05-22T02:55:52.593Z,953.0533
2023-05-22T02:56:53.186Z,953.0470
2023-05-22T03:07:11.669Z,952.9742
2023-05-22T03:09:12.070Z,952.9870
2023-05-22T03:10:14.895Z,952.9857
2023-05-22T03:11:17.744Z,952.9914
2023-05-22T03:12:21.298Z,952.9905
2023-05-22T03:13:21.367Z,952.9930
2023-05-22T03:14:24.179Z,952.9995
2023-05-22T03:15:27.109Z,953.0014
2023-05-22T03:16:28.177Z,952.9990
2023-05-22T03:17:28.845Z,952.9940
2023-05-22T03:26:38.425Z,953.0200
2023-05-22T03:27:39.790Z,953.0245
2023-05-22T03:28:40.060Z,953.0275
2023-05-22T03:29:41.137Z,953.0350
2023-05-22T03:38:58.041Z,953.0420
2023-05-22T03:39:58.105Z,953.0370
2023-05-22T03:40:59.438Z,953.0335
2023-05-22T03:42:01.997Z,953.0395
2023-05-22T03:43:02.104Z,953.0450
2023-05-22T03:45:04.476Z,953.0405
2023-05-22T03:46:05.050Z,953.0370
2023-05-22T03:47:05.672Z,953.0420
2023-05-22T03:48:05.785Z,953.0465
2023-05-22T03:49:08.599Z,953.0495
2023-05-22T03:50:10.585Z,953.0455
2023-05-22T03:51:30.342Z,953.0419
2023-05-22T03:57:24.609Z,953.0805
2023-05-22T03:58:27.544Z,953.0895
2023-05-22T03:59:31.030Z,953.0943
2023-05-22T04:00:32.999Z,953.1015
2023-05-22T04:01:32.874Z,953.1020
2023-05-22T04:02:36.368Z,953.1066
2023-05-22T04:03:37.000Z,953.1190
2023-05-22T04:06:42.788Z,953.1467
2023-05-22T04:10:51.954Z,953.1676
2023-05-22T04:12:55.041Z,953.1824
2023-05-22T04:13:55.585Z,953.1965
2023-05-22T04:24:12.235Z,953.2786
2023-05-22T04:25:13.340Z,953.2865
2023-05-22T04:31:28.695Z,953.3319
2023-05-22T04:46:58.645Z,953.4890
2023-05-22T04:48:01.467Z,953.5062
2023-05-22T04:49:04.912Z,953.5324
2023-05-22T04:50:05.348Z,953.5460
2023-05-22T04:58:22.021Z,953.5910
2023-05-22T05:01:27.203Z,953.6133
2023-05-22T05:02:30.064Z,953.6124
2023-05-22T05:03:33.398Z,953.6100
2023-05-22T05:09:41.838Z,953.6440
2023-05-22T05:10:44.654Z,953.6453
2023-05-22T05:11:47.434Z,953.6552
2023-05-22T05:12:50.201Z,953.6581
2023-05-22T05:13:52.975Z,953.6705
2023-05-22T05:14:55.703Z,953.6795
2023-05-22T05:15:59.120Z,953.6871
2023-05-22T05:17:01.085Z,953.6730
2023-05-22T05:18:01.733Z,953.6653
2023-05-22T05:19:02.430Z,953.6700
2023-05-22T05:21:06.353Z,953.6453
2023-05-22T05:22:07.793Z,953.6425
2023-05-22T05:23:07.833Z,953.6430
2023-05-22T05:25:11.828Z,953.6500
2023-05-22T05:26:12.378Z,953.6470
2023-05-22T05:29:20.690Z,953.6567
2023-05-22T05:30:20.933Z,953.6685
2023-05-22T05:32:23.750Z,953.6881
2023-05-22T05:33:23.752Z,953.6975
2023-05-22T05:37:32.227Z,953.7285
2023-05-22T05:38:32.309Z,953.7280
2023-05-22T05:39:35.126Z,953.7319
2023-05-22T05:41:38.116Z,953.7310
2023-05-22T05:42:39.326Z,953.7330
2023-05-22T05:43:42.187Z,953.7338
2023-05-22T05:44:42.195Z,953.7400
2023-05-22T05:45:42.282Z,953.7515
2023-05-22T05:46:45.146Z,953.7567
2023-05-22T05:49:51.781Z,953.7580
2023-05-22T05:57:03.487Z,953.7867
2023-05-22T05:58:04.395Z,953.7865
2023-05-22T06:04:11.158Z,953.8110
2023-05-22T06:05:11.268Z,953.8030
2023-05-22T06:06:14.057Z,953.8143
2023-05-22T06:07:16.839Z,953.8148
2023-05-22T06:08:16.964Z,953.8315
2023-05-22T06:15:28.557Z,953.9505
2023-05-22T06:16:29.209Z,953.9525
2023-05-22T06:18:32.210Z,953.9709
2023-05-22T06:19:33.064Z,953.9695
2023-05-22T06:20:33.049Z,953.9720
2023-05-22T06:22:39.315Z,953.9757
2023-05-22T06:23:39.829Z,953.9810
2023-05-22T06:27:49.408Z,953.9990
2023-05-22T06:32:58.197Z,954.0025
2023-05-22T06:39:11.726Z,953.9728
2023-05-22T06:40:36.753Z,953.9681
2023-05-22T06:41:16.758Z,953.9615
2023-05-22T06:44:22.711Z,953.9462
2023-05-22T06:48:29.056Z,953.9335
2023-05-22T06:49:29.124Z,953.9325
2023-05-22T06:51:32.518Z,953.9330
2023-05-22T06:52:33.366Z,953.9260
2023-05-22T06:58:42.388Z,953.9638
2023-05-22T06:59:42.440Z,953.9710
2023-05-22T07:00:45.225Z,953.9695
2023-05-22T07:01:48.082Z,953.9624
2023-05-22T07:02:49.491Z,953.9580
2023-05-22T07:03:49.994Z,953.9545
2023-05-22T07:06:53.904Z,953.9810
2023-05-22T07:24:36.629Z,954.0786
2023-05-22T07:53:46.369Z,954.0481
2023-05-22T08:08:23.121Z,953.9572
2023-05-22T08:09:25.935Z,953.9471
2023-05-22T08:10:37.250Z,953.9519
2023-05-22T08:28:14.199Z,953.9343
2023-05-22T08:38:40.859Z,953.9481
2023-05-22T08:39:43.576Z,953.9500
2023-05-22T08:40:46.652Z,953.9333
2023-05-22T08:41:46.551Z,953.9225
2023-05-22T08:46:59.844Z,953.9119
2023-05-22T08:54:15.532Z,953.9038
2023-05-22T09:05:39.869Z,953.8610
2023-05-22T09:06:39.911Z,953.8765
2023-05-22T09:07:42.739Z,953.8710
2023-05-22T09:13:55.862Z,953.8843
2023-05-22T09:14:58.596Z,953.8700
2023-05-22T09:16:01.296Z,953.8595
2023-05-22T09:17:04.131Z,953.8843
2023-05-22T09:28:30.034Z,953.8229
2023-05-22T09:29:32.816Z,953.8372
2023-05-22T09:30:35.579Z,953.8472
2023-05-22T09:31:38.403Z,953.8329
2023-05-22T09:37:51.434Z,953.8429
2023-05-22T09:44:04.368Z,953.7758
2023-05-22T09:45:07.135Z,953.7724
2023-05-22T09:46:09.955Z,953.7686
2023-05-22T09:53:25.205Z,953.7462
2023-05-22T09:56:39.199Z,953.7219
2023-05-22T09:57:35.837Z,953.7210
2023-05-22T09:58:38.558Z,953.7100
2023-05-22T09:59:41.310Z,953.7119
2023-05-22T10:00:44.055Z,953.7119
2023-05-22T10:01:46.857Z,953.7048
2023-05-22T10:23:37.525Z,953.5090
2023-05-22T10:24:40.226Z,953.5029
2023-05-22T10:25:42.926Z,953.4957
2023-05-22T10:26:45.668Z,953.4910
2023-05-22T10:32:58.503Z,953.4467
2023-05-22T10:36:03.521Z,953.4147
2023-05-22T10:49:34.582Z,953.2567
2023-05-22T11:06:15.960Z,953.1219
2023-05-22T11:07:18.659Z,953.1147
2023-05-22T11:08:21.405Z,953.1205
2023-05-22T11:40:35.053Z,952.9652
2023-05-22T11:48:49.767Z,952.9424
2023-05-22T11:49:52.407Z,952.9381
2023-05-22T11:50:52.152Z,952.9555
2023-05-22T11:51:54.805Z,952.9633
2023-05-22T11:57:04.682Z,952.9009
2023-05-22T12:46:50.883Z,952.4915
2023-05-22T12:49:53.066Z,952.5020
2023-05-22T13:21:02.675Z,952.2355
2023-05-22T13:45:53.966Z,951.9929
2023-05-22T14:05:33.439Z,951.9194
2023-05-22T14:06:34.805Z,951.8862
2023-05-22T14:07:35.097Z,951.8940
2023-05-22T14:08:35.493Z,951.8860
2023-05-22T14:09:36.010Z,951.8910
2023-05-22T14:10:36.363Z,951.8675
2023-05-22T14:11:37.668Z,951.8665
2023-05-22T14:23:45.288Z,951.7625
2023-05-22T14:25:48.383Z,951.7395
2023-05-22T14:30:54.454Z,951.7145
2023-05-22T14:52:44.491Z,951.5657
2023-05-22T14:53:47.082Z,951.5876
2023-05-22T14:58:57.028Z,951.6047
2023-05-22T15:00:59.259Z,951.6647
2023-05-22T15:19:41.417Z,951.6166
2023-05-22T15:24:45.660Z,951.5910
2023-05-22T15:32:00.549Z,951.5700
2023-05-22T15:46:33.807Z,951.5610
2023-05-22T15:49:38.949Z,951.5410
2023-05-22T16:32:15.362Z,951.6119
2023-05-22T16:34:17.862Z,951.6419
2023-05-22T17:26:05.316Z,951.8590
2023-05-22T17:44:36.498Z,951.9500
2023-05-22T18:00:03.646Z,952.1910
2023-05-22T18:12:31.627Z,952.3355
2023-05-22T18:21:41.109Z,952.4214
2023-05-22T18:22:42.158Z,952.4490
2023-05-22T18:23:42.093Z,952.5220
2023-05-22T18:25:55.860Z,952.5867
2023-05-22T18:27:47.903Z,952.6200
2023-05-22T18:28:48.391Z,952.6445
2023-05-22T18:32:57.147Z,952.7529
2023-05-22T18:37:00.150Z,952.7730
2023-05-22T18:39:03.376Z,952.7676
2023-05-22T18:40:03.992Z,952.7520
2023-05-22T18:41:04.815Z,952.7415
2023-05-22T18:42:05.388Z,952.7285
2023-05-22T18:43:05.533Z,952.7185
2023-05-22T18:44:05.903Z,952.7050
2023-05-22T18:45:06.968Z,952.6975
2023-05-22T18:46:08.043Z,952.6980
2023-05-22T18:47:09.025Z,952.7115
2023-05-22T18:49:10.275Z,952.7230
2023-05-22T18:50:10.388Z,952.7105
2023-05-22T18:51:10.949Z,952.7170
2023-05-22T18:52:12.226Z,952.7260
2023-05-22T18:53:12.315Z,952.7210
2023-05-22T18:54:12.777Z,952.6985
2023-05-22T19:02:17.970Z,952.7500
2023-05-22T19:03:18.956Z,952.7735
2023-05-22T19:04:19.723Z,952.7650
2023-05-22T19:05:19.832Z,952.7610
2023-05-22T19:06:19.770Z,952.7520
2023-05-22T19:07:19.832Z,952.7575
2023-05-22T19:08:20.254Z,952.7790
2023-05-22T19:09:20.609Z,952.8145
2023-05-22T19:10:20.757Z,952.8550
2023-05-22T19:11:20.900Z,952.8565
2023-05-22T19:12:20.909Z,952.8825
2023-05-22T19:13:21.212Z,952.9065
2023-05-22T19:14:21.653Z,952.9245
2023-05-22T19:15:21.611Z,952.9265
2023-05-22T19:32:54.890Z,953.2140
2023-05-22T19:33:55.113Z,953.2115
2023-05-22T19:37:59.876Z,953.2074
2023-05-22T19:40:00.411Z,953.1920
2023-05-22T19:41:00.966Z,953.1900
2023-05-22T19:42:01.394Z,953.1855
2023-05-22T19:43:02.071Z,953.1865
2023-05-22T19:44:02.686Z,953.1880
2023-05-22T19:45:03.277Z,953.1905
2023-05-22T19:46:05.410Z,953.1975
2023-05-22T19:47:04.736Z,953.1958
2023-05-22T19:48:06.491Z,953.1915
2023-05-22T19:49:06.990Z,953.1835
2023-05-22T19:50:08.396Z,953.1855
2023-05-22T19:51:08.970Z,953.1985
2023-05-22T19:52:09.106Z,953.2155
2023-05-22T19:53:09.904Z,953.2185
2023-05-22T19:54:10.578Z,953.2265
2023-05-22T19:55:10.960Z,953.2450
2023-05-22T19:56:12.585Z,953.2675
2023-05-22T19:57:13.227Z,953.2860
2023-05-22T19:58:13.797Z,953.2970
2023-05-22T19:59:14.022Z,953.3115
2023-05-22T20:00:14.999Z,953.3235
2023-05-22T20:01:14.993Z,953.3385
2023-05-22T20:02:15.151Z,953.3610
2023-05-22T20:03:15.367Z,953.3880
2023-05-22T20:04:15.365Z,953.4030
2023-05-22T20:05:16.390Z,953.4165
2023-05-22T20:06:17.680Z,953.4380
2023-05-22T20:07:18.814Z,953.4400
2023-05-22T20:08:19.149Z,953.4480
2023-05-22T20:09:19.975Z,953.4575
2023-05-22T20:10:20.535Z,953.4525
2023-05-22T20:11:20.661Z,953.4525
2023-05-22T20:12:21.426Z,953.4545
2023-05-22T20:15:25.852Z,953.4865
2023-05-22T20:16:29.419Z,953.5010
2023-05-22T20:19:35.918Z,953.5405
2023-05-22T20:20:33.529Z,953.5389
2023-05-22T20:26:43.364Z,953.5630
2023-05-22T20:27:43.831Z,953.5690
2023-05-22T20:30:47.203Z,953.5805
2023-05-22T20:31:47.735Z,953.5700
2023-05-22T20:33:50.382Z,953.5714
2023-05-22T20:34:53.961Z,953.5681
2023-05-22T20:42:00.528Z,953.6645
2023-05-22T20:43:00.671Z,953.6715
2023-05-22T20:44:01.061Z,953.6845
2023-05-22T20:45:01.127Z,953.6960
2023-05-22T20:46:01.973Z,953.6970
2023-05-22T20:47:02.728Z,953.7100
2023-05-22T20:48:02.979Z,953.7205
2023-05-22T20:49:03.766Z,953.7175
2023-05-22T20:50:04.274Z,953.7335
2023-05-22T20:51:04.402Z,953.7445
2023-05-22T20:52:05.176Z,953.7670
2023-05-22T20:53:06.507Z,953.7790
2023-05-22T20:55:07.069Z,953.7865
2023-05-22T21:10:32.008Z,953.8960
2023-05-22T21:11:32.753Z,953.9070
2023-05-22T21:12:33.499Z,953.9110
2023-05-22T21:16:40.656Z,953.9260
2023-05-22T21:17:41.712Z,953.9390
2023-05-22T21:18:41.838Z,953.9480
2023-05-22T21:19:41.843Z,953.9435
2023-05-22T21:20:41.919Z,953.9380
2023-05-22T21:21:42.867Z,953.9545
2023-05-22T21:25:46.227Z,953.9945
2023-05-22T21:36:04.138Z,954.2734
2023-05-22T21:37:04.917Z,954.2910
2023-05-22T21:38:05.293Z,954.2990
2023-05-22T21:39:06.029Z,954.3055
2023-05-22T21:40:06.909Z,954.3185
2023-05-22T21:43:13.131Z,954.3610
2023-05-22T21:44:13.671Z,954.3815
2023-05-22T21:49:21.289Z,954.4457
2023-05-22T21:50:22.199Z,954.4600
2023-05-22T21:51:22.329Z,954.4775
2023-05-22T21:52:23.456Z,954.4845
2023-05-22T21:53:23.962Z,954.4835
2023-05-22T21:54:24.145Z,954.4795
2023-05-22T21:55:24.725Z,954.4715
2023-05-22T21:56:25.121Z,954.4685
2023-05-22T21:58:28.284Z,954.4660
2023-05-22T21:59:28.882Z,954.4730
2023-05-22T22:00:28.809Z,954.4800
2023-05-22T22:01:29.840Z,954.4950
2023-05-22T22:02:30.606Z,954.5175
2023-05-22T22:03:30.895Z,954.5435
2023-05-22T22:04:31.144Z,954.5665
2023-05-22T22:05:31.155Z,954.5935
2023-05-22T22:06:31.946Z,954.6190
2023-05-22T22:07:31.964Z,954.6295
2023-05-22T22:08:32.663Z,954.6370
2023-05-22T22:09:32.825Z,954.6415
2023-05-22T22:10:33.470Z,954.6510
2023-05-22T22:11:33.707Z,954.6640
2023-05-22T22:12:34.331Z,954.6665
2023-05-22T22:13:35.570Z,954.6735
2023-05-22T22:14:35.812Z,954.6745
2023-05-22T22:15:36.398Z,954.6790
2023-05-22T22:16:37.287Z,954.6795
2023-05-22T22:17:38.038Z,954.6615
2023-05-22T22:18:38.242Z,954.6445
2023-05-22T22:19:38.474Z,954.6360
2023-05-22T22:23:42.219Z,954.5955
2023-05-22T22:24:42.237Z,954.5965
2023-05-22T22:25:42.466Z,954.5820
2023-05-22T22:26:42.470Z,954.5815
2023-05-22T22:27:42.966Z,954.5845
2023-05-22T22:28:43.760Z,954.5770
2023-05-22T22:29:44.507Z,954.5745
2023-05-22T22:30:45.165Z,954.5740
2023-05-22T22:34:49.136Z,954.5480
2023-05-22T22:37:53.144Z,954.5605
2023-05-22T22:40:56.734Z,954.5520
2023-05-22T22:41:56.728Z,954.5550
2023-05-22T22:47:05.965Z,954.5724
2023-05-22T22:48:07.401Z,954.5695
2023-05-22T22:49:08.531Z,954.5660
2023-05-22T22:54:18.708Z,954.5780
2023-05-22T22:55:18.848Z,954.5865
2023-05-22T22:56:19.779Z,954.6120
2023-05-22T22:57:20.607Z,954.6425
2023-05-22T22:58:20.655Z,954.6735
2023-05-22T22:59:20.672Z,954.6920
2023-05-22T23:00:20.743Z,954.7025
2023-05-22T23:01:20.816Z,954.7095
2023-05-22T23:02:21.857Z,954.7140
2023-05-22T23:03:22.599Z,954.7145
2023-05-22T23:04:22.851Z,954.7190
2023-05-22T23:05:23.757Z,954.7065
2023-05-22T23:06:23.760Z,954.6985
2023-05-22T23:07:23.757Z,954.6870
2023-05-22T23:08:23.850Z,954.6745
2023-05-22T23:09:23.878Z,954.6795
2023-05-22T23:11:25.521Z,954.6860
2023-05-22T23:12:25.544Z,954.6835
2023-05-22T23:13:26.639Z,954.6815
2023-05-22T23:14:28.202Z,954.6715
2023-05-22T23:15:28.196Z,954.6660
2023-05-22T23:16:29.213Z,954.6505
2023-05-22T23:17:30.155Z,954.6420
2023-05-22T23:18:30.193Z,954.6320
2023-05-22T23:19:30.969Z,954.6180
2023-05-22T23:20:31.015Z,954.6020
2023-05-22T23:21:31.869Z,954.5920
2023-05-22T23:22:31.924Z,954.5745
2023-05-22T23:23:32.689Z,954.5695
2023-05-22T23:24:33.594Z,954.5650
2023-05-22T23:25:33.654Z,954.5695
2023-05-22T23:26:34.184Z,954.5640
2023-05-22T23:27:34.222Z,954.5675
2023-05-22T23:28:34.295Z,954.5630
2023-05-22T23:29:35.151Z,954.5470
2023-05-22T23:30:35.219Z,954.5460
2023-05-22T23:31:35.298Z,954.5360
2023-05-22T23:32:35.399Z,954.5295
2023-05-22T23:33:35.416Z,954.5230
2023-05-22T23:34:35.613Z,954.5255
2023-05-22T23:35:35.716Z,954.5220
2023-05-22T23:36:36.550Z,954.5266
2023-05-22T23:37:36.611Z,954.5295
2023-05-22T23:38:36.672Z,954.5250
2023-05-22T23:39:36.764Z,954.5280
2023-05-22T23:40:36.793Z,954.5260
2023-05-22T23:41:36.803Z,954.5315
2023-05-22T23:42:40.327Z,954.5355
2023-05-22T23:43:40.980Z,954.5415
2023-05-22T23:44:41.035Z,954.5390
2023-05-22T23:45:41.955Z,954.5350
2023-05-22T23:46:42.128Z,954.5235
2023-05-22T23:47:43.327Z,954.5030
2023-05-22T23:48:43.374Z,954.5040
2023-05-22T23:49:44.116Z,954.4910
2023-05-22T23:50:44.905Z,954.4955
2023-05-22T23:51:44.981Z,954.4980
2023-05-22T23:52:45.675Z,954.5035
2023-05-22T23:53:45.725Z,954.5025
2023-05-22T23:54:46.560Z,954.4945
2023-05-22T23:55:46.610Z,954.4925
2023-05-22T23:56:46.673Z,954.4940
2023-05-22T23:57:46.762Z,954.4945
2023-05-22T23:58:46.821Z,954.4990
2023-05-22T23:59:47.694Z,954.4975
